Time;durP1;ratioP1;P1;durP2;ratioP2;P2;SDS_P1;SDS_P2;PMS_P1;PMS_P2;Temp;Humidity;BMP_temperature;BMP_pressure;BME280_temperature;BME280_humidity;BME280_pressure;Samples;Min_cycle;Max_cycle;Signal;HPM_P1;HPM_P2
2024/01/25 00:06:22;;;;;;;0.00;0.00;;;;;;;7.83;65.69;101124.81;15703604;28;20045;-52
2024/01/25 00:13:59;;;;;;;1.75;1.17;;;;;;;7.65;66.45;101150.06;15740034;28;20070;-53
2024/01/25 00:21:34;;;;;;;0.00;0.00;;;;;;;7.74;66.29;101166.00;15740265;28;20046;-54
2024/01/25 00:29:09;;;;;;;0.10;0.10;;;;;;;7.74;65.99;101161.50;15722259;28;20072;-52
2024/01/25 00:36:46;;;;;;;1.45;0.45;;;;;;;7.80;65.56;101171.47;15738973;28;20455;-50
2024/01/25 00:44:21;;;;;;;2.28;0.32;;;;;;;7.68;66.03;101176.41;15739177;28;20099;-56
2024/01/25 00:52:00;;;;;;;0.00;0.00;;;;;;;7.76;65.75;101182.69;15723567;28;20389;-51
2024/01/25 00:59:36;;;;;;;0.00;0.00;;;;;;;7.74;65.87;101196.25;15737779;28;20044;-55
2024/01/25 01:07:11;;;;;;;24.45;1.35;;;;;;;7.78;64.79;101194.03;15718529;28;20048;-51
2024/01/25 01:14:51;;;;;;;0.40;0.40;;;;;;;7.80;64.94;101214.22;15702855;28;20053;-52
2024/01/25 01:22:25;;;;;;;0.00;0.00;;;;;;;7.70;65.25;101242.22;15736059;28;20102;-52
2024/01/25 01:30:05;;;;;;;0.00;0.00;;;;;;;7.81;64.80;101236.44;15735809;28;20461;-54
2024/01/25 01:37:38;;;;;;;0.22;0.20;;;;;;;7.91;64.86;101245.84;15735804;28;20509;-53
2024/01/25 01:45:13;;;;;;;;;;;;;;;7.81;65.01;101239.09;15713043;28;20130;-51
2024/01/25 01:52:47;;;;;;;0.00;0.00;;;;;;;7.75;64.91;101231.81;15673726;28;19982;-53
2024/01/25 02:00:23;;;;;;;0.30;0.30;;;;;;;7.55;65.28;101242.97;15727079;28;20504;-54
2024/01/25 02:07:57;;;;;;;3.33;1.10;;;;;;;7.64;65.17;101247.22;15701079;28;20280;-55
2024/01/25 02:15:33;;;;;;;0.00;0.00;;;;;;;7.72;65.04;101264.22;15735687;28;20417;-53
2024/01/25 02:23:08;;;;;;;0.00;0.00;;;;;;;7.63;65.13;101274.97;15739459;28;20123;-53
2024/01/25 02:30:42;;;;;;;0.00;0.00;;;;;;;7.66;65.25;101257.75;15746791;28;20621;-51
2024/01/25 02:38:16;;;;;;;;;;;;;;;7.78;64.63;101275.03;15747795;28;20041;-51
2024/01/25 02:45:50;;;;;;;0.00;0.00;;;;;;;7.65;64.75;101242.75;15736954;28;19921;-51
2024/01/25 02:53:25;;;;;;;0.00;0.00;;;;;;;7.49;65.35;101242.84;15700174;28;20460;-53
2024/01/25 03:01:00;;;;;;;10.88;0.73;;;;;;;7.48;65.08;101243.88;15689820;28;20085;-52
2024/01/25 03:08:35;;;;;;;0.00;0.00;;;;;;;7.47;65.15;101261.75;15722062;28;20400;-52
2024/01/25 03:16:11;;;;;;;0.60;0.55;;;;;;;7.42;64.91;101277.47;15744776;28;20071;-53
2024/01/25 03:23:46;;;;;;;0.52;0.52;;;;;;;7.38;65.05;101285.00;15743709;28;20367;-53
2024/01/25 03:31:21;;;;;;;0.40;0.40;;;;;;;7.39;65.22;101297.34;15710422;28;20056;-52
2024/01/25 03:38:56;;;;;;;0.17;0.17;;;;;;;7.35;64.71;101308.53;15742102;28;20131;-51
2024/01/25 03:46:30;;;;;;;4.18;1.00;;;;;;;7.31;64.96;101326.75;15694185;28;20057;-53
2024/01/25 03:54:05;;;;;;;0.00;0.00;;;;;;;7.28;65.24;101331.63;15662578;28;20041;-51
2024/01/25 04:01:43;;;;;;;0.00;0.00;;;;;;;7.26;64.91;101293.56;15689302;28;20045;-52
2024/01/25 04:09:19;;;;;;;3.30;0.65;;;;;;;7.29;64.61;101285.22;15744831;28;20045;-54
2024/01/25 04:16:53;;;;;;;0.43;0.43;;;;;;;7.19;64.49;101279.25;15743207;28;20048;-54
2024/01/25 04:24:28;;;;;;;;;;;;;;;7.30;64.56;101284.19;15740889;28;20040;-51
2024/01/25 04:32:05;;;;;;;0.05;0.05;;;;;;;7.23;64.52;101313.44;15740220;28;20462;-52
2024/01/25 04:39:42;;;;;;;0.03;0.03;;;;;;;7.11;64.54;101313.00;15720990;28;20533;-52
2024/01/25 04:47:17;;;;;;;0.00;0.00;;;;;;;7.20;65.27;101347.66;15717796;28;20090;-50
2024/01/25 04:54:52;;;;;;;0.13;0.13;;;;;;;7.21;65.34;101357.34;15676391;28;20037;-50
2024/01/25 05:02:26;;;;;;;0.00;0.00;;;;;;;7.33;65.28;101345.28;15713427;28;20101;-51
2024/01/25 05:10:02;;;;;;;0.43;0.43;;;;;;;7.11;66.12;101358.38;15721756;28;20071;-53
2024/01/25 05:17:37;;;;;;;0.10;0.10;;;;;;;7.31;65.40;101347.28;15740332;28;20052;-50
2024/01/25 05:25:11;;;;;;;0.22;0.22;;;;;;;7.10;66.33;101370.06;15722692;28;20049;-52
2024/01/25 05:32:45;;;;;;;0.10;0.10;;;;;;;7.06;66.38;101386.59;15740464;28;20413;-52
2024/01/25 05:40:28;;;;;;;0.00;0.00;;;;;;;7.13;66.03;101388.41;15738485;28;20033;-51
2024/01/25 05:48:02;;;;;;;0.88;0.45;;;;;;;7.12;65.96;101418.75;15710247;28;20045;-52
2024/01/25 05:55:38;;;;;;;4.03;2.40;;;;;;;7.12;66.19;101437.44;15656178;28;20045;-54
2024/01/25 06:03:13;;;;;;;0.00;0.00;;;;;;;7.12;65.97;101434.78;15709787;28;20260;-50
2024/01/25 06:10:49;;;;;;;0.70;0.63;;;;;;;7.06;66.44;101434.63;15717516;28;20092;-53
2024/01/25 06:18:23;;;;;;;0.00;0.00;;;;;;;7.08;65.84;101443.28;15736712;28;20121;-53
2024/01/25 06:25:58;;;;;;;0.00;0.00;;;;;;;7.09;65.96;101450.31;15735673;28;20050;-53
2024/01/25 06:33:32;;;;;;;0.00;0.00;;;;;;;6.90;66.77;101465.69;15718916;28;20456;-53
2024/01/25 06:41:08;;;;;;;0.00;0.00;;;;;;;6.99;66.96;101487.00;15717656;28;20040;-56
2024/01/25 06:48:41;;;;;;;3.42;0.98;;;;;;;7.12;66.83;101487.34;15703973;28;20460;-52
2024/01/25 06:56:16;;;;;;;0.20;0.20;;;;;;;7.18;67.10;101507.19;15708112;28;20508;-53
2024/01/25 07:03:50;;;;;;;0.00;0.00;;;;;;;7.03;67.43;101517.72;15696213;28;20043;-52
2024/01/25 07:11:28;;;;;;;0.00;0.00;;;;;;;7.10;66.85;101532.91;15739566;22;20063;-45
2024/01/25 07:19:03;;;;;;;0.00;0.00;;;;;;;6.93;67.73;101536.56;15717065;28;20517;-46
2024/01/25 07:26:42;;;;;;;0.00;0.00;;;;;;;7.08;67.71;101553.56;15788061;28;20058;-47
2024/01/25 07:34:16;;;;;;;0.00;0.00;;;;;;;6.97;67.59;101559.25;15806121;28;20032;-46
2024/01/25 07:41:54;;;;;;;0.00;0.00;;;;;;;7.02;67.98;101575.59;15787136;28;20503;-51
2024/01/25 07:49:27;;;;;;;0.00;0.00;;;;;;;7.27;67.55;101575.59;15803272;28;20040;-47
2024/01/25 07:57:02;;;;;;;0.00;0.00;;;;;;;7.06;67.35;101602.81;15806589;28;20056;-45
2024/01/25 08:04:41;;;;;;;0.08;0.08;;;;;;;7.27;67.40;101629.00;15782478;28;20131;-50
2024/01/25 08:12:16;;;;;;;;;;;;;;;7.22;67.41;101634.00;15726076;28;20094;-45
2024/01/25 08:19:49;;;;;;;0.00;0.00;;;;;;;7.30;68.12;101644.69;15723914;28;19920;-50
2024/01/25 08:27:24;;;;;;;;;;;;;;;7.27;67.16;101653.03;15742854;28;20498;-49
2024/01/25 08:35:01;;;;;;;0.00;0.00;;;;;;;7.13;67.86;101663.41;15743500;28;20254;-49
2024/01/25 08:42:35;;;;;;;;;;;;;;;7.45;67.02;101668.91;15787052;28;20052;-51
2024/01/25 08:50:12;;;;;;;0.00;0.00;;;;;;;7.42;66.55;101683.44;15783496;28;19920;-50
2024/01/25 08:57:51;;;;;;;0.00;0.00;;;;;;;7.36;66.37;101689.44;15784269;28;20046;-44
2024/01/25 09:05:27;;;;;;;1.75;1.58;;;;;;;7.77;65.20;101706.28;15769117;28;20036;-47
2024/01/25 09:13:04;;;;;;;0.00;0.00;;;;;;;7.54;65.36;101716.81;15763366;28;20403;-48
2024/01/25 09:20:38;;;;;;;1.08;0.88;;;;;;;7.72;65.63;101724.69;15800464;28;20098;-45
2024/01/25 09:28:13;;;;;;;0.43;0.43;;;;;;;7.71;64.75;101735.53;15762589;28;20098;-48
2024/01/25 09:35:47;;;;;;;0.00;0.00;;;;;;;7.72;65.27;101739.88;15744373;28;20044;-45
2024/01/25 09:43:22;;;;;;;0.00;0.00;;;;;;;7.45;65.66;101746.38;15798927;28;20107;-48
2024/01/25 09:51:00;;;;;;;0.30;0.30;;;;;;;7.79;65.34;101754.25;15749856;28;20051;-47
2024/01/25 09:58:40;;;;;;;0.35;0.35;;;;;;;7.59;65.08;101770.59;15779367;28;20039;-46
2024/01/25 10:06:15;;;;;;;8.98;1.55;;;;;;;7.72;65.29;101772.78;15760289;28;20044;-45
2024/01/25 10:13:52;;;;;;;0.00;0.00;;;;;;;7.64;65.39;101775.44;15737049;28;20079;-45
2024/01/25 10:21:27;;;;;;;0.43;0.35;;;;;;;7.98;64.80;101769.97;15719115;28;20049;-55
2024/01/25 10:29:03;;;;;;;5.28;0.90;;;;;;;7.82;64.72;101775.28;15736833;28;20074;-45
2024/01/25 10:36:41;;;;;;;0.13;0.13;;;;;;;8.04;64.37;101779.13;15751458;28;20044;-47
2024/01/25 10:44:17;;;;;;;0.32;0.32;;;;;;;8.28;63.46;101780.94;15784806;28;20036;-53
2024/01/25 10:51:52;;;;;;;0.00;0.00;;;;;;;8.49;63.21;101783.97;15776423;28;20052;-49
2024/01/25 10:59:29;;;;;;;0.00;0.00;;;;;;;8.16;62.71;101791.16;15792664;28;20064;-47
2024/01/25 11:07:08;;;;;;;0.10;0.10;;;;;;;8.29;63.10;101807.50;15748612;28;20432;-46
2024/01/25 11:14:44;;;;;;;0.35;0.35;;;;;;;8.60;62.05;101788.94;15746928;28;20419;-46
2024/01/25 11:22:18;;;;;;;0.30;0.30;;;;;;;8.87;61.42;101785.00;15746274;28;20055;-48
2024/01/25 11:29:53;;;;;;;0.13;0.10;;;;;;;8.89;60.45;101792.84;15745670;28;20048;-46
2024/01/25 11:37:29;;;;;;;0.63;0.45;;;;;;;9.05;59.93;101790.13;15763129;28;20056;-51
2024/01/25 11:45:04;;;;;;;;;;;;;;;8.84;60.21;101784.50;15749222;28;20044;-48
2024/01/25 11:52:38;;;;;;;0.25;0.25;;;;;;;9.04;59.30;101795.63;15805131;28;19973;-47
2024/01/25 12:00:15;;;;;;;0.00;0.00;;;;;;;9.53;58.36;101806.09;15803649;28;20044;-50
2024/01/25 12:07:49;;;;;;;0.00;0.00;;;;;;;9.42;58.31;101810.03;15754598;28;20432;-50
2024/01/25 12:15:24;;;;;;;1.27;0.08;;;;;;;9.16;59.37;101827.22;15741181;28;20432;-52
2024/01/25 12:22:59;;;;;;;26.20;0.65;;;;;;;8.90;59.14;101815.94;15722156;28;20036;-52
2024/01/25 12:30:34;;;;;;;0.00;0.00;;;;;;;9.81;56.98;101819.81;15739732;28;20064;-50
2024/01/25 12:38:09;;;;;;;0.00;0.00;;;;;;;8.84;59.11;101822.00;15749942;28;20051;-47
2024/01/25 12:45:44;;;;;;;0.38;0.38;;;;;;;9.57;58.41;101827.03;15795542;28;20098;-50
2024/01/25 12:53:17;;;;;;;0.00;0.00;;;;;;;9.26;58.71;101829.69;15738537;28;20033;-49
2024/01/25 13:00:53;;;;;;;0.00;0.00;;;;;;;9.13;58.62;101834.75;15748554;28;20040;-47
2024/01/25 13:08:29;;;;;;;1.52;0.20;;;;;;;9.10;59.01;101825.25;15781620;28;20429;-46
2024/01/25 13:16:06;;;;;;;1.17;1.17;;;;;;;8.96;59.96;101827.81;15753094;22;20095;-52
2024/01/25 13:23:39;;;;;;;0.10;0.10;;;;;;;8.80;60.33;101824.16;15740076;28;20213;-53
2024/01/25 13:31:14;;;;;;;0.10;0.10;;;;;;;8.48;60.78;101816.22;15739975;28;20084;-50
2024/01/25 13:38:48;;;;;;;0.00;0.00;;;;;;;8.72;61.01;101818.00;15738766;28;20052;-51
2024/01/25 13:46:22;;;;;;;;;;;;;;;8.65;61.61;101832.06;15725659;28;20045;-55
2024/01/25 13:53:56;;;;;;;0.00;0.00;;;;;;;8.38;62.72;101830.63;15748840;28;20022;-50
2024/01/25 14:01:31;;;;;;;0.20;0.20;;;;;;;8.56;62.38;101845.66;15795479;28;20036;-51
2024/01/25 14:09:05;;;;;;;0.00;0.00;;;;;;;8.34;62.76;101847.13;15794118;28;20048;-53
2024/01/25 14:16:39;;;;;;;;;;;;;;;8.25;62.88;101864.19;15786738;28;20052;-54
2024/01/25 14:24:14;;;;;;;0.00;0.00;;;;;;;8.14;62.93;101876.06;15814793;28;19973;-53
2024/01/25 14:31:49;;;;;;;0.00;0.00;;;;;;;8.04;63.00;101870.88;15796685;28;20048;-54
2024/01/25 14:39:22;;;;;;;0.00;0.00;;;;;;;7.58;63.99;101850.91;15799831;28;20040;-51
2024/01/25 14:46:59;;;;;;;0.00;0.00;;;;;;;8.17;62.77;101884.59;15794113;28;20077;-56
2024/01/25 14:54:33;;;;;;;1.20;0.22;;;;;;;7.91;63.54;101890.06;15811212;28;20044;-52
2024/01/25 15:02:08;;;;;;;;;;;;;;;7.93;63.65;101896.09;15803525;28;20049;-52
2024/01/25 15:09:41;;;;;;;0.00;0.00;;;;;;;7.75;63.59;101908.75;15816668;28;19930;-52
2024/01/25 15:17:18;;;;;;;6.93;0.80;;;;;;;7.74;63.87;101900.88;15801652;28;20044;-51
2024/01/25 15:24:52;;;;;;;0.17;0.13;;;;;;;7.83;63.42;101905.25;15806892;28;20117;-50
2024/01/25 15:32:27;;;;;;;;;;;;;;;7.84;63.85;101920.31;15805316;28;20389;-51
2024/01/25 15:40:03;;;;;;;0.00;0.00;;;;;;;7.67;64.78;101936.28;15797431;28;19920;-52
2024/01/25 15:47:39;;;;;;;0.15;0.15;;;;;;;7.52;65.51;101948.59;15773207;28;20123;-51
2024/01/25 15:55:15;;;;;;;22.92;1.02;;;;;;;7.67;64.92;101954.16;15805142;28;20382;-52
2024/01/25 16:02:51;;;;;;;0.00;0.00;;;;;;;7.57;64.83;101943.59;15798493;28;20467;-52
2024/01/25 16:10:25;;;;;;;0.10;0.10;;;;;;;7.19;66.34;101963.63;15787451;28;20075;-51
2024/01/25 16:18:00;;;;;;;0.00;0.00;;;;;;;7.29;66.69;101977.69;15788030;28;20048;-52
2024/01/25 16:25:35;;;;;;;0.00;0.00;;;;;;;7.09;66.88;101947.72;15805046;28;20126;-52
2024/01/25 16:33:13;;;;;;;0.00;0.00;;;;;;;7.39;66.48;101983.75;15787231;28;20416;-51
2024/01/25 16:40:47;;;;;;;0.47;0.47;;;;;;;7.51;66.33;101987.00;15803095;28;20067;-52
2024/01/25 16:48:23;;;;;;;0.00;0.00;;;;;;;7.25;67.23;101983.50;15789802;28;20716;-50
2024/01/25 16:55:58;;;;;;;0.75;0.75;;;;;;;7.18;67.33;101996.66;15785849;28;20121;-51
2024/01/25 17:03:33;;;;;;;16.17;2.22;;;;;;;7.13;67.43;102010.47;15793025;28;20055;-51
2024/01/25 17:11:07;;;;;;;0.10;0.10;;;;;;;7.48;66.68;102014.03;15800921;28;20520;-51
2024/01/25 17:18:41;;;;;;;;;;;;;;;7.27;66.26;101970.81;15802725;28;20048;-51
2024/01/25 17:26:15;;;;;;;0.00;0.00;;;;;;;7.49;66.10;102013.03;15804975;28;19920;-53
2024/01/25 17:33:50;;;;;;;0.28;0.25;;;;;;;7.36;66.92;102025.97;15810919;28;20068;-53
2024/01/25 17:41:28;;;;;;;0.00;0.00;;;;;;;7.60;66.50;102031.47;15806868;28;20405;-53
2024/01/25 17:49:03;;;;;;;0.70;0.40;;;;;;;7.23;67.36;102041.56;15775538;28;20082;-51
2024/01/25 17:56:38;;;;;;;0.00;0.00;;;;;;;7.36;67.07;102055.34;15780886;28;20170;-53
2024/01/25 18:04:14;;;;;;;0.20;0.20;;;;;;;7.27;67.79;102053.59;15773227;28;20412;-53
2024/01/25 18:11:48;;;;;;;0.25;0.25;;;;;;;6.87;69.66;102054.97;15798200;28;20074;-57
2024/01/25 18:19:26;;;;;;;0.10;0.10;;;;;;;6.85;69.53;102063.16;15790154;28;20408;-53
2024/01/25 18:26:59;;;;;;;0.00;0.00;;;;;;;7.12;68.75;102058.69;15797264;28;20044;-51
2024/01/25 18:34:34;;;;;;;0.00;0.00;;;;;;;7.31;68.07;102071.84;15798120;28;20051;-53
2024/01/25 18:42:08;;;;;;;0.00;0.00;;;;;;;7.26;68.58;102070.63;15795551;28;20663;-52
2024/01/25 18:49:43;;;;;;;;;;;;;;;7.03;69.57;102075.63;15764448;28;20059;-52
2024/01/25 18:57:17;;;;;;;0.10;0.10;;;;;;;6.98;70.04;102076.09;15796217;28;19923;-52
2024/01/25 19:04:52;;;;;;;0.00;0.00;;;;;;;6.75;70.27;102078.38;15790216;28;20094;-50
2024/01/25 19:12:26;;;;;;;0.22;0.22;;;;;;;6.75;70.69;102065.03;15757026;28;20285;-49
2024/01/25 19:20:01;;;;;;;;;;;;;;;6.76;70.36;102057.84;15790632;28;20146;-49
2024/01/25 19:27:38;;;;;;;0.00;0.00;;;;;;;6.65;70.75;102067.78;15810656;28;19928;-47
2024/01/25 19:35:13;;;;;;;0.10;0.10;;;;;;;6.37;71.24;102074.16;15787204;28;20104;-48
2024/01/25 19:42:50;;;;;;;0.00;0.00;;;;;;;6.46;71.47;102078.59;15806160;28;20488;-50
2024/01/25 19:50:26;;;;;;;0.08;0.08;;;;;;;6.63;70.88;102084.94;15793787;28;20066;-53
2024/01/25 19:58:01;;;;;;;0.00;0.00;;;;;;;6.22;72.15;102084.50;15772315;28;20047;-51
2024/01/25 20:05:38;;;;;;;0.10;0.10;;;;;;;6.08;72.39;102092.97;15798374;28;20123;-49
2024/01/25 20:13:12;;;;;;;3.03;0.65;;;;;;;6.19;72.26;102083.94;15803655;28;20066;-48
2024/01/25 20:20:47;;;;;;;0.00;0.00;;;;;;;6.09;72.27;102074.16;15802730;28;20070;-48
2024/01/25 20:28:21;;;;;;;0.00;0.00;;;;;;;6.49;71.37;102072.13;15784899;28;20143;-48
2024/01/25 20:35:56;;;;;;;;;;;;;;;6.21;71.92;102072.16;15801777;28;20044;-51
2024/01/25 20:43:29;;;;;;;0.00;0.00;;;;;;;6.16;72.18;102073.59;15784475;28;20019;-48
2024/01/25 20:51:04;;;;;;;;;;;;;;;5.71;73.42;102075.13;15767823;28;20050;-53
2024/01/25 20:58:38;;;;;;;0.00;0.00;;;;;;;5.95;73.19;102079.97;15802392;28;19924;-48
2024/01/25 21:06:13;;;;;;;;;;;;;;;5.88;72.87;102077.03;15775607;28;20050;-49
2024/01/25 21:13:48;;;;;;;0.10;0.10;;;;;;;5.65;73.78;102089.06;15793112;28;19920;-51
2024/01/25 21:21:23;;;;;;;0.00;0.00;;;;;;;5.69;73.57;102081.59;15781173;28;20043;-49
2024/01/25 21:28:57;;;;;;;0.00;0.00;;;;;;;5.38;74.16;102087.97;15798352;28;20040;-48
2024/01/25 21:36:33;;;;;;;1.10;1.00;;;;;;;5.57;73.64;102078.28;15797159;28;20501;-49
2024/01/25 21:44:09;;;;;;;0.73;0.73;;;;;;;5.20;74.93;102080.88;15800160;28;20105;-50
2024/01/25 21:51:45;;;;;;;2.20;0.47;;;;;;;5.33;74.35;102074.25;15782003;28;20044;-49
2024/01/25 21:59:19;;;;;;;0.20;0.20;;;;;;;4.80;75.92;102077.41;15826083;28;20434;-56
2024/01/25 22:06:55;;;;;;;0.20;0.20;;;;;;;4.96;75.69;102076.81;15767018;28;20139;-55
2024/01/25 22:14:28;;;;;;;30.55;2.05;;;;;;;4.53;77.03;102072.75;15801847;28;20044;-48
2024/01/25 22:22:04;;;;;;;1.85;1.00;;;;;;;4.61;75.72;102075.53;15772693;28;20106;-50
2024/01/25 22:29:38;;;;;;;0.00;0.00;;;;;;;4.34;76.59;102080.69;15772813;28;20050;-51
2024/01/25 22:37:13;;;;;;;0.00;0.00;;;;;;;4.77;74.70;102075.00;15796117;28;20047;-51
2024/01/25 22:44:47;;;;;;;0.20;0.20;;;;;;;4.91;74.09;102089.72;15804677;28;20040;-52
2024/01/25 22:52:21;;;;;;;;;;;;;;;4.59;74.28;102077.50;15782267;28;20040;-52
2024/01/25 22:59:55;;;;;;;1.98;1.45;;;;;;;4.70;74.51;102084.50;15792517;28;19920;-52
2024/01/25 23:07:30;;;;;;;0.00;0.00;;;;;;;4.04;76.13;102076.25;15775175;28;20110;-53
2024/01/25 23:15:05;;;;;;;1.23;1.13;;;;;;;3.55;79.15;102077.88;15790171;28;20038;-50
2024/01/25 23:22:40;;;;;;;0.10;0.10;;;;;;;3.45;79.14;102075.16;15807609;28;20072;-49
2024/01/25 23:30:13;;;;;;;0.00;0.00;;;;;;;2.98;80.93;102077.34;15772539;28;20040;-50
2024/01/25 23:37:48;;;;;;;0.10;0.10;;;;;;;3.43;79.62;102085.06;15786787;28;20044;-52
2024/01/25 23:45:23;;;;;;;0.00;0.00;;;;;;;3.59;78.91;102079.28;15795924;28;20047;-48
2024/01/25 23:52:58;;;;;;;0.90;0.47;;;;;;;3.76;77.86;102078.66;15793168;28;20377;-52
